createdAt,value
2023-04-12T00:00:13.501Z,1.40
2023-04-12T00:02:44.824Z,1.20
2023-04-12T00:05:14.240Z,1.38
2023-04-12T00:07:43.090Z,1.30
2023-04-12T00:10:12.893Z,1.40
2023-04-12T00:12:41.653Z,1.25
2023-04-12T00:15:10.721Z,1.30
2023-04-12T00:17:38.706Z,1.30
2023-04-12T00:20:12.238Z,1.10
2023-04-12T00:22:41.589Z,1.10
2023-04-12T00:25:09.691Z,1.08
2023-04-12T00:27:39.221Z,1.05
2023-04-12T00:30:08.725Z,1.30
2023-04-12T00:32:36.727Z,1.27
2023-04-12T00:35:04.923Z,1.08
2023-04-12T00:37:33.004Z,1.00
2023-04-12T00:40:01.024Z,1.10
2023-04-12T00:42:28.966Z,0.98
2023-04-12T00:44:58.341Z,1.10
2023-04-12T00:47:26.488Z,1.02
2023-04-12T00:49:54.519Z,1.00
2023-04-12T00:52:22.520Z,1.10
2023-04-12T00:54:51.847Z,0.90
2023-04-12T00:57:19.877Z,0.90
2023-04-12T00:59:48.757Z,0.90
2023-04-12T01:02:55.058Z,0.85
2023-04-12T01:05:24.370Z,0.88
2023-04-12T01:07:56.345Z,0.80
2023-04-12T01:10:30.888Z,0.80
2023-04-12T01:13:05.550Z,0.93
2023-04-12T01:15:34.108Z,0.90
2023-04-12T01:18:05.854Z,0.70
2023-04-12T01:20:37.510Z,0.70
2023-04-12T01:23:31.226Z,0.80
2023-04-12T01:26:11.249Z,0.80
2023-04-12T01:28:43.460Z,0.80
2023-04-12T01:31:12.945Z,0.52
2023-04-12T01:33:41.102Z,0.80
2023-04-12T01:36:12.749Z,0.60
2023-04-12T01:38:41.122Z,0.70
2023-04-12T01:41:09.346Z,0.90
2023-04-12T01:43:43.765Z,0.75
2023-04-12T01:46:12.183Z,0.70
2023-04-12T01:48:40.256Z,0.60
2023-04-12T01:51:11.715Z,0.63
2023-04-12T01:53:44.893Z,0.60
2023-04-12T01:56:12.858Z,0.60
2023-04-12T01:58:42.557Z,0.60
2023-04-12T02:01:10.684Z,0.60
2023-04-12T02:03:38.795Z,0.50
2023-04-12T02:06:07.312Z,0.57
2023-04-12T02:08:35.423Z,0.50
2023-04-12T02:11:09.028Z,0.60
2023-04-12T02:13:38.291Z,0.52
2023-04-12T02:16:10.918Z,0.57
2023-04-12T02:18:41.613Z,0.60
2023-04-12T02:21:09.718Z,0.60
2023-04-12T02:23:37.743Z,0.50
2023-04-12T02:26:05.923Z,0.60
2023-04-12T02:28:34.707Z,0.50
2023-04-12T02:31:02.804Z,0.65
2023-04-12T02:33:32.232Z,0.60
2023-04-12T02:36:02.641Z,0.50
2023-04-12T02:38:31.003Z,0.40
2023-04-12T02:40:59.029Z,0.52
2023-04-12T02:43:26.970Z,0.50
2023-04-12T02:45:55.069Z,0.52
2023-04-12T02:48:22.973Z,0.47
2023-04-12T02:50:52.367Z,0.50
2023-04-12T02:53:20.756Z,0.43
2023-04-12T02:55:48.864Z,0.50
2023-04-12T02:58:17.601Z,0.40
2023-04-12T03:00:46.869Z,0.50
2023-04-12T03:03:14.960Z,0.50
2023-04-12T03:05:47.306Z,0.40
2023-04-12T03:08:16.732Z,0.40
2023-04-12T03:10:44.749Z,0.50
2023-04-12T03:13:12.658Z,0.22
2023-04-12T03:15:41.551Z,0.40
2023-04-12T03:18:09.557Z,0.40
2023-04-12T03:20:39.110Z,0.43
2023-04-12T03:23:07.105Z,0.38
2023-04-12T03:25:37.093Z,0.32
2023-04-12T03:28:05.388Z,0.43
2023-04-12T03:30:33.418Z,0.40
2023-04-12T03:33:01.450Z,0.38
2023-04-12T03:35:29.527Z,0.35
2023-04-12T03:37:57.550Z,0.50
2023-04-12T03:40:25.831Z,0.40
2023-04-12T03:42:55.194Z,0.30
2023-04-12T03:45:23.272Z,0.30
2023-04-12T03:47:51.267Z,0.40
2023-04-12T03:50:19.902Z,0.60
2023-04-12T03:52:47.904Z,0.30
2023-04-12T03:55:18.575Z,0.30
2023-04-12T03:57:46.532Z,0.35
2023-04-12T04:00:16.868Z,0.20
2023-04-12T04:02:44.962Z,0.30
2023-04-12T04:05:13.831Z,0.30
2023-04-12T04:07:41.916Z,0.30
2023-04-12T04:10:10.789Z,0.35
2023-04-12T04:12:38.808Z,0.30
2023-04-12T04:15:07.526Z,0.32
2023-04-12T04:17:36.902Z,0.20
2023-04-12T04:20:07.114Z,0.22
2023-04-12T04:22:35.118Z,0.40
2023-04-12T04:25:03.107Z,0.30
2023-04-12T04:27:34.247Z,0.30
2023-04-12T04:30:02.790Z,0.30
2023-04-12T04:32:31.691Z,0.30
2023-04-12T04:35:01.168Z,0.30
2023-04-12T04:37:29.513Z,0.40
2023-04-12T04:39:57.505Z,0.20
2023-04-12T04:42:25.469Z,0.22
2023-04-12T04:45:04.535Z,0.30
2023-04-12T04:47:32.603Z,0.30
2023-04-12T04:50:02.321Z,0.30
2023-04-12T04:52:30.358Z,0.20
2023-04-12T04:54:58.359Z,0.35
2023-04-12T04:57:26.803Z,0.30
2023-04-12T04:59:54.813Z,0.30
2023-04-12T05:02:24.241Z,0.30
2023-04-12T05:04:56.299Z,0.28
2023-04-12T05:07:26.243Z,0.22
2023-04-12T05:09:54.358Z,0.20
2023-04-12T05:12:22.603Z,0.20
2023-04-12T05:14:51.920Z,0.30
2023-04-12T05:17:20.209Z,0.20
2023-04-12T05:19:48.270Z,0.28
2023-04-12T05:22:20.318Z,0.40
2023-04-12T05:24:49.730Z,0.20
2023-04-12T05:27:17.669Z,0.30
2023-04-12T05:29:45.616Z,0.20
2023-04-12T05:32:13.564Z,0.20
2023-04-12T05:34:42.368Z,0.30
2023-04-12T05:37:10.311Z,0.30
2023-04-12T05:39:38.346Z,0.20
2023-04-12T05:42:07.829Z,0.30
2023-04-12T05:44:36.267Z,0.30
2023-04-12T05:47:04.450Z,0.55
2023-04-12T05:49:32.563Z,0.40
2023-04-12T05:52:00.575Z,0.40
2023-04-12T05:54:28.576Z,0.35
2023-04-12T05:56:57.172Z,0.22
2023-04-12T05:59:26.528Z,0.40
2023-04-12T06:01:54.555Z,0.30
2023-04-12T06:04:22.860Z,0.30
2023-04-12T06:06:51.374Z,0.40
2023-04-12T06:09:19.928Z,0.40
2023-04-12T06:11:48.063Z,0.30
2023-04-12T06:14:16.057Z,0.32
2023-04-12T06:16:45.384Z,0.45
2023-04-12T06:19:13.467Z,0.40
2023-04-12T06:21:41.470Z,0.50
2023-04-12T06:24:09.647Z,0.30
2023-04-12T06:26:40.195Z,0.40
2023-04-12T06:29:08.484Z,0.50
2023-04-12T06:31:36.776Z,0.50
2023-04-12T06:34:06.227Z,0.50
2023-04-12T06:36:34.198Z,0.40
2023-04-12T06:39:02.213Z,0.50
2023-04-12T06:41:30.865Z,0.57
2023-04-12T06:43:59.010Z,0.40
2023-04-12T06:46:27.576Z,0.30
2023-04-12T06:48:55.715Z,0.98
2023-04-12T06:51:25.108Z,0.80
2023-04-12T06:53:53.062Z,0.80
2023-04-12T06:56:21.213Z,0.55
2023-04-12T06:58:49.247Z,0.73
2023-04-12T07:01:17.864Z,0.90
2023-04-12T07:03:46.132Z,0.60
2023-04-12T07:06:24.333Z,0.65
2023-04-12T07:08:55.092Z,0.60
2023-04-12T07:11:23.933Z,0.60
2023-04-12T07:13:52.074Z,0.70
2023-04-12T07:16:20.068Z,0.60
2023-04-12T07:19:44.573Z,0.57
2023-04-12T07:22:14.066Z,0.70
2023-04-12T07:24:43.537Z,0.52
2023-04-12T07:27:11.870Z,0.50
2023-04-12T07:29:39.809Z,0.60
2023-04-12T07:32:08.221Z,0.60
2023-04-12T07:34:36.786Z,0.50
2023-04-12T07:37:05.186Z,0.40
2023-04-12T07:39:34.902Z,0.70
2023-04-12T07:42:04.262Z,0.70
2023-04-12T07:44:32.426Z,0.70
2023-04-12T07:47:00.366Z,0.50
2023-04-12T08:00:52.745Z,0.82
2023-04-12T08:03:20.900Z,0.70
2023-04-12T08:17:34.076Z,0.70
2023-04-12T08:20:11.888Z,0.60
2023-04-12T08:22:40.062Z,0.52
2023-04-12T08:25:09.137Z,0.55
2023-04-12T08:27:37.099Z,0.65
2023-04-12T08:30:06.050Z,0.50
2023-04-12T08:32:35.480Z,0.50
2023-04-12T08:35:03.598Z,0.60
2023-04-12T08:37:31.812Z,0.52
2023-04-12T08:40:00.904Z,0.43
2023-04-12T08:42:28.895Z,0.50
2023-04-12T08:44:56.843Z,0.50
2023-04-12T08:47:24.826Z,0.60
2023-04-12T08:57:33.553Z,0.52
2023-04-12T09:00:01.973Z,0.40
2023-04-12T09:02:30.108Z,0.40
2023-04-12T09:04:58.568Z,0.40
2023-04-12T09:07:28.839Z,0.40
2023-04-12T09:09:58.108Z,0.30
2023-04-12T09:12:26.161Z,0.40
2023-04-12T09:15:09.671Z,0.55
2023-04-12T09:17:39.048Z,0.40
2023-04-12T09:20:26.049Z,0.38
2023-04-12T09:22:55.612Z,0.45
2023-04-12T09:25:40.528Z,0.30
2023-04-12T09:28:23.083Z,0.30
2023-04-12T09:30:53.104Z,0.47
2023-04-12T09:33:21.524Z,0.40
2023-04-12T09:39:34.232Z,0.70
2023-04-12T09:42:10.504Z,0.50
2023-04-12T09:44:43.640Z,0.50
2023-04-12T09:47:13.069Z,0.55
2023-04-12T09:49:41.544Z,0.30
2023-04-12T09:52:10.830Z,0.38
2023-04-12T09:54:40.151Z,0.45
2023-04-12T09:57:08.492Z,0.40
2023-04-12T09:59:38.441Z,0.43
2023-04-12T10:02:08.788Z,0.40
2023-04-12T10:04:40.577Z,0.50
2023-04-12T10:07:08.645Z,0.20
2023-04-12T10:09:39.062Z,0.40
2023-04-12T10:12:07.215Z,0.40
2023-04-12T10:14:35.658Z,0.40
2023-04-12T10:17:04.652Z,0.40
2023-04-12T10:19:33.701Z,0.35
2023-04-12T10:22:03.166Z,0.50
2023-04-12T10:24:32.151Z,0.30
2023-04-12T10:27:03.052Z,0.32
2023-04-12T10:29:32.146Z,0.32
2023-04-12T10:32:19.352Z,0.50
2023-04-12T10:34:51.472Z,0.50
2023-04-12T10:37:21.047Z,0.30
2023-04-12T10:39:53.557Z,0.40
2023-04-12T10:42:25.922Z,0.30
2023-04-12T10:44:54.916Z,0.30
2023-04-12T10:48:01.610Z,0.40
2023-04-12T10:50:30.299Z,0.30
2023-04-12T10:53:28.062Z,0.40
2023-04-12T10:55:56.018Z,0.50
2023-04-12T10:58:59.002Z,0.30
2023-04-12T11:01:27.600Z,0.32
2023-04-12T11:04:16.050Z,0.40
2023-04-12T11:06:48.595Z,0.30
2023-04-12T11:09:25.363Z,0.30
2023-04-12T11:11:54.014Z,0.40
2023-04-12T11:14:30.866Z,0.40
2023-04-12T11:17:21.802Z,0.35
2023-04-12T11:20:00.404Z,0.20
2023-04-12T11:22:30.160Z,0.30
2023-04-12T11:25:00.040Z,0.40
2023-04-12T11:27:28.533Z,0.30
2023-04-12T11:29:57.109Z,0.40
2023-04-12T11:32:26.561Z,0.30
2023-04-12T11:34:55.480Z,0.40
2023-04-12T11:37:23.462Z,0.22
2023-04-12T11:39:53.075Z,0.38
2023-04-12T11:42:24.705Z,0.40
2023-04-12T11:44:58.936Z,0.40
2023-04-12T11:47:30.061Z,0.35
2023-04-12T11:49:58.921Z,0.30
2023-04-12T11:52:30.118Z,0.20
2023-04-12T11:54:58.989Z,0.30
2023-04-12T11:57:29.200Z,0.30
2023-04-12T11:59:58.921Z,0.47
2023-04-12T12:02:30.380Z,0.43
2023-04-12T12:05:01.461Z,0.52
2023-04-12T12:07:29.819Z,0.50
2023-04-12T12:09:57.898Z,0.50
2023-04-12T12:12:26.199Z,0.50
2023-04-12T12:14:55.572Z,0.60
2023-04-12T12:17:23.637Z,0.85
2023-04-12T12:20:01.533Z,0.68
2023-04-12T12:22:29.474Z,0.80
2023-04-12T12:24:58.894Z,0.70
2023-04-12T12:27:35.546Z,0.65
2023-04-12T12:30:05.570Z,1.13
2023-04-12T12:32:34.911Z,0.85
2023-04-12T12:38:43.792Z,0.90
2023-04-12T12:41:18.632Z,0.65
2023-04-12T12:43:47.337Z,0.70
2023-04-12T12:46:17.641Z,0.85
2023-04-12T12:48:45.723Z,0.80
2023-04-12T12:51:13.997Z,0.80
2023-04-12T12:53:42.124Z,0.80
2023-04-12T12:56:11.202Z,0.65
2023-04-12T12:58:41.049Z,0.80
2023-04-12T13:01:09.289Z,0.85
2023-04-12T13:03:38.978Z,0.70
2023-04-12T13:06:10.281Z,0.80
2023-04-12T13:08:38.199Z,0.50
2023-04-12T13:11:06.682Z,0.60
2023-04-12T13:13:34.678Z,0.90
2023-04-12T13:16:02.632Z,0.50
2023-04-12T13:18:30.749Z,0.65
2023-04-12T13:21:37.274Z,0.30
2023-04-12T13:24:05.179Z,0.70
2023-04-12T13:26:35.860Z,0.50
2023-04-12T13:29:03.826Z,0.70
2023-04-12T13:31:31.976Z,0.45
2023-04-12T13:34:00.320Z,0.63
2023-04-12T13:36:28.541Z,0.70
2023-04-12T13:38:58.079Z,0.60
2023-04-12T13:41:26.476Z,0.50
2023-04-12T13:43:54.470Z,0.50
2023-04-12T13:46:22.520Z,0.70
2023-04-12T13:48:51.070Z,0.30
2023-04-12T13:51:19.297Z,0.47
2023-04-12T13:53:47.611Z,0.52
2023-04-12T13:56:17.144Z,0.60
2023-04-12T13:58:45.163Z,0.40
2023-04-12T14:01:13.626Z,0.80
2023-04-12T14:03:41.771Z,0.50
2023-04-12T14:07:11.067Z,0.50
2023-04-12T14:09:38.973Z,0.50
2023-04-12T14:12:08.323Z,0.65
2023-04-12T14:14:36.229Z,0.40
2023-04-12T14:17:04.166Z,0.50
2023-04-12T14:19:32.297Z,0.40
2023-04-12T14:22:00.386Z,0.40
2023-04-12T14:24:28.295Z,0.40
2023-04-12T14:26:57.193Z,0.50
2023-04-12T14:29:27.198Z,0.30
2023-04-12T14:31:55.238Z,0.20
2023-04-12T14:34:23.205Z,0.50
2023-04-12T14:37:30.005Z,0.30
2023-04-12T14:39:57.999Z,0.30
2023-04-12T14:42:26.106Z,0.47
2023-04-12T14:44:55.462Z,0.40
2023-04-12T14:47:23.466Z,0.63
2023-04-12T14:49:51.390Z,0.22
2023-04-12T14:53:16.443Z,0.40
2023-04-12T14:55:45.613Z,0.38
2023-04-12T14:58:13.562Z,0.32
2023-04-12T15:00:42.814Z,0.30
2023-04-12T15:03:11.026Z,0.43
2023-04-12T15:13:25.007Z,0.35
2023-04-12T15:15:55.488Z,0.40
2023-04-12T15:18:23.500Z,0.52
2023-04-12T15:25:33.038Z,0.40
2023-04-12T15:28:01.506Z,0.40
2023-04-12T15:30:29.747Z,0.30
2023-04-12T15:32:59.730Z,0.47
2023-04-12T15:35:27.801Z,0.40
2023-04-12T15:42:15.960Z,0.30
2023-04-12T15:44:45.454Z,0.32
2023-04-12T15:47:13.572Z,0.32
2023-04-12T15:49:42.924Z,0.30
2023-04-12T15:52:49.743Z,0.40
2023-04-12T15:55:20.268Z,0.43
2023-04-12T15:57:48.613Z,0.40
2023-04-12T16:00:24.700Z,0.40
2023-04-12T16:02:56.440Z,0.50
2023-04-12T16:05:26.690Z,0.40
2023-04-12T16:16:29.126Z,0.30
2023-04-12T16:18:59.274Z,0.30
2023-04-12T16:53:14.098Z,0.30
2023-04-12T16:55:44.505Z,0.32
2023-04-12T16:58:12.544Z,0.30
2023-04-12T17:00:42.877Z,0.30
2023-04-12T17:03:11.530Z,0.30
2023-04-12T17:05:40.092Z,0.40
2023-04-12T17:12:00.591Z,0.28
2023-04-12T17:14:29.383Z,0.15
2023-04-12T17:16:57.395Z,0.30
2023-04-12T17:19:25.384Z,0.35
2023-04-12T17:22:30.828Z,0.20
2023-04-12T17:24:58.800Z,0.30
2023-04-12T17:27:28.092Z,0.25
2023-04-12T17:29:56.044Z,0.30
2023-04-12T17:32:24.058Z,0.40
2023-04-12T17:34:54.806Z,0.70
2023-04-12T17:38:12.793Z,0.60
2023-04-12T17:40:40.922Z,0.40
2023-04-12T17:43:10.523Z,0.57
2023-04-12T17:45:38.539Z,0.47
2023-04-12T17:48:07.071Z,0.47
2023-04-12T17:50:35.227Z,0.40
2023-04-12T17:53:03.655Z,0.43
2023-04-12T17:55:31.801Z,0.45
2023-04-12T17:57:59.696Z,0.38
2023-04-12T18:00:29.128Z,0.30
2023-04-12T18:02:57.751Z,0.47
2023-04-12T18:05:26.019Z,0.40
2023-04-12T18:08:49.854Z,0.40
2023-04-12T18:11:18.363Z,0.63
2023-04-12T18:13:46.734Z,0.60
2023-04-12T18:16:16.194Z,0.60
2023-04-12T18:18:44.322Z,0.43
2023-04-12T18:21:12.386Z,0.50
2023-04-12T18:23:40.485Z,0.63
2023-04-12T18:26:08.406Z,0.60
2023-04-12T18:28:37.490Z,0.60
2023-04-12T18:31:06.838Z,0.60
2023-04-12T18:33:36.263Z,0.70
2023-04-12T18:36:04.658Z,0.50
2023-04-12T18:38:33.697Z,0.70
2023-04-12T18:41:01.649Z,0.90
2023-04-12T18:43:29.644Z,0.82
2023-04-12T18:45:57.573Z,0.75
2023-04-12T18:48:27.246Z,0.73
2023-04-12T18:50:57.534Z,0.73
2023-04-12T18:53:25.494Z,0.60
2023-04-12T18:55:53.655Z,0.90
2023-04-12T18:58:21.673Z,0.80
2023-04-12T19:00:50.745Z,0.70
2023-04-12T19:03:18.905Z,0.80
2023-04-12T19:05:46.972Z,0.90
2023-04-12T19:08:16.392Z,0.80
2023-04-12T19:10:44.389Z,0.75
2023-04-12T19:13:12.264Z,0.95
2023-04-12T19:15:40.324Z,0.90
2023-04-12T19:18:08.367Z,0.98
2023-04-12T19:20:36.445Z,1.00
2023-04-12T19:23:24.507Z,1.00
2023-04-12T19:25:53.046Z,0.80
2023-04-12T19:28:21.167Z,0.95
2023-04-12T19:30:49.126Z,0.90
2023-04-12T19:33:17.191Z,0.85
2023-04-12T19:35:45.125Z,1.10
2023-04-12T19:38:13.598Z,1.10
2023-04-12T19:40:43.147Z,0.77
2023-04-12T19:43:14.078Z,0.90
2023-04-12T19:45:42.390Z,1.00
2023-04-12T19:48:10.472Z,0.90
2023-04-12T19:50:38.574Z,0.98
2023-04-12T19:53:06.565Z,0.80
2023-04-12T19:55:34.579Z,0.90
2023-04-12T19:58:03.981Z,1.00
2023-04-12T20:00:32.152Z,0.90
2023-04-12T20:03:00.704Z,0.90
2023-04-12T20:05:28.972Z,0.90
2023-04-12T20:07:56.993Z,0.90
2023-04-12T20:10:25.228Z,1.00
2023-04-12T20:12:53.173Z,0.90
2023-04-12T20:15:22.521Z,0.85
2023-04-12T20:17:51.996Z,1.15
2023-04-12T20:20:20.510Z,0.90
2023-04-12T20:22:51.974Z,1.20
2023-04-12T20:25:21.014Z,1.10
2023-04-12T20:27:52.156Z,0.85
2023-04-12T20:30:20.990Z,0.93
2023-04-12T20:32:54.176Z,1.10
2023-04-12T20:35:23.566Z,1.05
2023-04-12T20:38:30.716Z,0.90
2023-04-12T20:40:58.798Z,0.98
2023-04-12T20:43:27.159Z,1.00
2023-04-12T20:45:55.292Z,0.95
2023-04-12T20:48:24.954Z,0.93
2023-04-12T20:50:52.936Z,0.82
2023-04-12T20:53:21.026Z,0.85
2023-04-12T20:55:48.925Z,1.00
2023-04-12T20:58:17.821Z,1.00
2023-04-12T21:00:46.868Z,1.00
2023-04-12T21:03:14.953Z,0.82
2023-04-12T21:05:46.137Z,0.93
2023-04-12T21:08:14.203Z,1.02
2023-04-12T21:10:42.786Z,1.00
2023-04-12T21:13:11.995Z,0.90
2023-04-12T21:15:40.338Z,1.10
2023-04-12T21:18:08.409Z,0.90
2023-04-12T21:20:36.441Z,1.00
2023-04-12T21:23:07.436Z,0.93
2023-04-12T21:25:35.502Z,0.90
2023-04-12T21:28:03.623Z,1.02
2023-04-12T21:30:31.671Z,1.10
2023-04-12T21:33:02.331Z,1.00
2023-04-12T21:35:31.230Z,0.98
2023-04-12T21:37:59.216Z,0.90
2023-04-12T21:40:28.655Z,1.02
2023-04-12T21:42:57.159Z,1.02
2023-04-12T21:45:25.576Z,1.20
2023-04-12T21:47:54.349Z,1.00
2023-04-12T21:50:22.495Z,1.25
2023-04-12T21:52:50.427Z,1.00
2023-04-12T21:55:18.686Z,1.10
2023-04-12T21:57:48.122Z,1.05
2023-04-12T22:00:18.371Z,1.00
2023-04-12T22:02:46.548Z,1.15
2023-04-12T22:05:14.657Z,1.00
2023-04-12T22:07:51.794Z,1.08
2023-04-12T22:10:20.729Z,1.30
2023-04-12T22:12:51.243Z,1.20
2023-04-12T22:15:19.684Z,1.10
2023-04-12T22:17:47.814Z,0.98
2023-04-12T22:20:15.842Z,0.85
2023-04-12T22:22:57.262Z,1.00
2023-04-12T22:25:27.070Z,1.15
2023-04-12T22:27:58.037Z,1.13
2023-04-12T22:30:26.085Z,1.20
2023-04-12T22:32:54.291Z,1.00
2023-04-12T22:35:25.124Z,1.00
2023-04-12T22:38:20.853Z,1.02
2023-04-12T22:40:48.933Z,1.25
2023-04-12T22:43:22.335Z,1.08
2023-04-12T22:45:54.128Z,1.08
2023-04-12T22:48:25.135Z,0.98
2023-04-12T22:50:54.535Z,1.05
2023-04-12T22:53:22.541Z,1.05
2023-04-12T22:55:50.588Z,1.05
2023-04-12T22:58:19.898Z,1.08
2023-04-12T23:00:49.290Z,1.08
2023-04-12T23:03:17.822Z,1.00
2023-04-12T23:05:45.938Z,1.20
2023-04-12T23:08:14.486Z,1.08
2023-04-12T23:10:43.213Z,1.20
2023-04-12T23:13:11.821Z,0.88
2023-04-12T23:15:41.669Z,1.00
2023-04-12T23:18:10.778Z,0.90
2023-04-12T23:20:39.061Z,1.00
2023-04-12T23:23:06.981Z,0.80
2023-04-12T23:25:41.900Z,1.02
2023-04-12T23:28:13.455Z,0.85
2023-04-12T23:30:44.848Z,0.90
2023-04-12T23:33:13.076Z,0.90
2023-04-12T23:35:41.724Z,1.02
2023-04-12T23:38:32.786Z,0.90
2023-04-12T23:41:02.237Z,0.90
2023-04-12T23:43:30.467Z,0.90
2023-04-12T23:46:04.446Z,0.98
2023-04-12T23:48:32.863Z,0.90
2023-04-12T23:51:01.137Z,0.98
2023-04-12T23:53:35.280Z,0.95
2023-04-12T23:56:03.271Z,0.80
2023-04-12T23:58:31.223Z,0.82
